sensor_id;sensor_type;location;lat;lon;timestamp;pressure;altitude;pressure_sealevel;temperature
77385;BMP280;66444;49.680;18.538;2023-01-31T00:03:17;96874.61733862276;;;2.620213864510879
77385;BMP280;66444;49.680;18.538;2023-01-31T00:08:21;96880.64244097921;;;2.625310058007017
77385;BMP280;66444;49.680;18.538;2023-01-31T00:13:26;96893.76589593278;;;2.625310058007017
77385;BMP280;66444;49.680;18.538;2023-01-31T00:18:30;96891.7351190431;;;2.5947328097186984
77385;BMP280;66444;49.680;18.538;2023-01-31T00:23:34;96918.75700557229;;;2.5998290323186666
77385;BMP280;66444;49.680;18.538;2023-01-31T00:28:41;96905.9304638891;;;2.584540347056463
77385;BMP280;66444;49.680;18.538;2023-01-31T00:33:47;96920.01298413303;;;2.625310058007017
77385;BMP280;66444;49.680;18.538;2023-01-31T00:38:54;96927.8871569493;;;2.625310058007017
77385;BMP280;66444;49.680;18.538;2023-01-31T00:44:00;96936.2415809452;;;2.6456947737839074
77385;BMP280;66444;49.680;18.538;2023-01-31T00:49:05;96932.54434416383;;;2.655887096747756
77385;BMP280;66444;49.680;18.538;2023-01-31T00:54:09;96943.04381804039;;;2.655887096747756
77385;BMP280;66444;49.680;18.538;2023-01-31T00:59:13;96937.01782751143;;;2.6507909381762147
77385;BMP280;66444;49.680;18.538;2023-01-31T01:04:18;96940.53027719613;;;2.6049252490978687
77385;BMP280;66444;49.680;18.538;2023-01-31T01:09:22;96945.77958498552;;;2.6049252490978687
77385;BMP280;66444;49.680;18.538;2023-01-31T01:14:26;96949.06991093438;;;2.660983249498531
77385;BMP280;66444;49.680;18.538;2023-01-31T01:19:31;96949.2542527531;;;2.6966561557725073
77385;BMP280;66444;49.680;18.538;2023-01-31T01:24:35;96941.56246728663;;;2.7323287768289446
77385;BMP280;66444;49.680;18.538;2023-01-31T01:29:41;96962.26806674518;;;2.747616955684498
77385;BMP280;66444;49.680;18.538;2023-01-31T01:34:45;97019.24804754477;;;2.7425209018867465
77385;BMP280;66444;49.680;18.538;2023-01-31T01:39:49;96990.7737455894;;;2.6762716728262603
77385;BMP280;66444;49.680;18.538;2023-01-31T01:44:55;97000.41517096089;;;2.584540347056463
77385;BMP280;66444;49.680;18.538;2023-01-31T01:50:04;96982.5250057446;;;2.6049252490978687
77385;BMP280;66444;49.680;18.538;2023-01-31T01:55:17;96992.03210437264;;;2.7017522619571537
77385;BMP280;66444;49.680;18.538;2023-01-31T02:00:26;97003.68253007444;;;2.77819315623492
77385;BMP280;66444;49.680;18.538;2023-01-31T02:05:34;96989.85215973874;;;2.8597286665812134
77385;BMP280;66444;49.680;18.538;2023-01-31T02:10:46;96996.24797935404;;;2.9361668542027473
77385;BMP280;66444;49.680;18.538;2023-01-31T02:15:55;97001.86645997051;;;3.0075079810339957
77385;BMP280;66444;49.680;18.538;2023-01-31T02:21:14;97009.81358296244;;;3.0941349584143607
77385;BMP280;66444;49.680;18.538;2023-01-31T02:26:54;97009.69746086682;;;3.1450912181288
77385;BMP280;66444;49.680;18.538;2023-01-31T02:32:22;97013.87744089082;;;3.1552824002224953
77385;BMP280;66444;49.680;18.538;2023-01-31T02:37:53;97022.23770692281;;;3.175664694560692
77385;BMP280;66444;49.680;18.538;2023-01-31T02:43:09;97030.5983809299;;;3.1960468957666306
77385;BMP280;66444;49.680;18.538;2023-01-31T02:48:24;97021.82283886735;;;3.241906507965177
77385;BMP280;66444;49.680;18.538;2023-01-31T02:53:43;97032.51340337889;;;3.2775747692678125
77385;BMP280;66444;49.680;18.538;2023-01-31T02:58:53;97039.50222298276;;;3.3234335432760416
77385;BMP280;66444;49.680;18.538;2023-01-31T03:04:02;97049.23694974066;;;3.3183381472248583
77385;BMP280;66444;49.680;18.538;2023-01-31T03:09:10;97059.15271585422;;;3.348910436220467
77385;BMP280;66444;49.680;18.538;2023-01-31T03:14:21;97064.40864716933;;;3.348910436220467
77385;BMP280;66444;49.680;18.538;2023-01-31T03:19:35;97059.74825911212;;;3.3183381472248583
77385;BMP280;66444;49.680;18.538;2023-01-31T03:24:48;97072.40787045;;;3.297956504812464
77385;BMP280;66444;49.680;18.538;2023-01-31T03:29:55;97086.80365161203;;;3.3234335432760416
77385;BMP280;66444;49.680;18.538;2023-01-31T03:35:07;97088.76783659648;;;3.26738386657089
77385;BMP280;66444;49.680;18.538;2023-01-31T03:40:15;97109.41781896754;;;3.1960468957666306
77385;BMP280;66444;49.680;18.538;2023-01-31T03:45:25;97113.33354282488;;;3.08394363662228
77385;BMP280;66444;49.680;18.538;2023-01-31T03:50:36;97115.09968672042;;;2.9922206927556543
77385;BMP280;66444;49.680;18.538;2023-01-31T03:55:45;97129.8903127022;;;2.9514543345663697
77385;BMP280;66444;49.680;18.538;2023-01-31T04:00:54;97133.20396674928;;;2.8699205006007107
77385;BMP280;66444;49.680;18.538;2023-01-31T04:06:02;97142.73680241793;;;2.829153024824336
77385;BMP280;66444;49.680;18.538;2023-01-31T04:11:09;97155.96290967125;;;2.77819315623492
77385;BMP280;66444;49.680;18.538;2023-01-31T04:16:16;97164.5167074947;;;2.6966561557725073
77385;BMP280;66444;49.680;18.538;2023-01-31T04:21:21;97162.9603708529;;;2.6864639259409158
77385;BMP280;66444;49.680;18.538;2023-01-31T04:26:26;97178.71163811124;;;2.6864639259409158
77385;BMP280;66444;49.680;18.538;2023-01-31T04:31:30;97179.29203700295;;;2.655887096747756
77385;BMP280;66444;49.680;18.538;2023-01-31T04:36:35;97182.98546290435;;;2.6456947737839074
77385;BMP280;66444;49.680;18.538;2023-01-31T04:41:39;97186.67872621988;;;2.635502427536994
77385;BMP280;66444;49.680;18.538;2023-01-31T04:46:44;97201.93955084978;;;2.615117665193975
77385;BMP280;66444;49.680;18.538;2023-01-31T04:51:49;97192.50777648331;;;2.6049252490978687
77385;BMP280;66444;49.680;18.538;2023-01-31T04:56:53;97201.45015366605;;;2.5947328097186984
77385;BMP280;66444;49.680;18.538;2023-01-31T05:01:57;97207.18941990091;;;2.615117665193975
77385;BMP280;66444;49.680;18.538;2023-01-31T05:07:00;97219.73634902145;;;2.6456947737839074
77385;BMP280;66444;49.680;18.538;2023-01-31T05:12:03;97222.85113303852;;;2.6660793964285405
77385;BMP280;66444;49.680;18.538;2023-01-31T05:17:06;97235.88905123656;;;2.7170405455864968
77385;BMP280;66444;49.680;18.538;2023-01-31T05:22:10;97242.11927289078;;;2.757809045817703
77385;BMP280;66444;49.680;18.538;2023-01-31T05:27:13;97243.09811628697;;;2.7985771735198797
77385;BMP280;66444;49.680;18.538;2023-01-31T05:32:16;97258.07382153031;;;2.793481177929789
77385;BMP280;66444;49.680;18.538;2023-01-31T05:37:19;97284.12890561271;;;2.757809045817703
77385;BMP280;66444;49.680;18.538;2023-01-31T05:42:23;97276.16546885573;;;2.8087691472377627
77385;BMP280;66444;49.680;18.538;2023-01-31T05:47:26;97293.07293377633;;;2.747616955684498
77385;BMP280;66444;49.680;18.538;2023-01-31T05:52:29;97292.86920059523;;;2.711944456864148
77385;BMP280;66444;49.680;18.538;2023-01-31T05:57:32;97299.47419750974;;;2.6864639259409158
77385;BMP280;66444;49.680;18.538;2023-01-31T06:02:35;97291.1063706498;;;2.6660793964285405
77385;BMP280;66444;49.680;18.538;2023-01-31T06:07:38;97302.26195618865;;;2.584540347056463
77385;BMP280;66444;49.680;18.538;2023-01-31T06:12:42;97307.511743597;;;2.584540347056463
77385;BMP280;66444;49.680;18.538;2023-01-31T06:17:45;97310.70906281467;;;2.5539628193713724
77385;BMP280;66444;49.680;18.538;2023-01-31T06:22:48;97326.45770942757;;;2.5539628193713724
77385;BMP280;66444;49.680;18.538;2023-01-31T06:27:52;97333.62846903528;;;2.497903474373743
77385;BMP280;66444;49.680;18.538;2023-01-31T06:32:58;97353.84493521141;;;2.492807135358453
77385;BMP280;66444;49.680;18.538;2023-01-31T06:38:01;97352.70564391724;;;2.5539628193713724
77385;BMP280;66444;49.680;18.538;2023-01-31T06:43:04;97363.77423121098;;;2.5233850821387023
77385;BMP280;66444;49.680;18.538;2023-01-31T06:48:08;97365.26003259658;;;2.584540347056463
77385;BMP280;66444;49.680;18.538;2023-01-31T06:53:11;97374.69502992173;;;2.5947328097186984
77385;BMP280;66444;49.680;18.538;2023-01-31T06:58:14;97379.87064826355;;;2.6456947737839074
77385;BMP280;66444;49.680;18.538;2023-01-31T07:03:18;97382.99095932498;;;2.6660793964285405
77385;BMP280;66444;49.680;18.538;2023-01-31T07:08:21;97397.67796263739;;;2.6762716728262603
77385;BMP280;66444;49.680;18.538;2023-01-31T07:13:25;97400.79878148853;;;2.6966561557725073
77385;BMP280;66444;49.680;18.538;2023-01-31T07:18:28;97399.08773332018;;;2.788385176518932
77385;BMP280;66444;49.680;18.538;2023-01-31T07:23:31;97418.24906385719;;;2.793481177929789
77385;BMP280;66444;49.680;18.538;2023-01-31T07:28:34;97436.8413496229;;;2.829153024824336
77385;BMP280;66444;49.680;18.538;2023-01-31T07:33:37;97435.2805453661;;;2.818961097672582
77385;BMP280;66444;49.680;18.538;2023-01-31T07:38:41;97447.4899713681;;;2.7272327055688947
77385;BMP280;66444;49.680;18.538;2023-01-31T07:43:44;97453.16648617947;;;2.7985771735198797
77385;BMP280;66444;49.680;18.538;2023-01-31T07:48:47;97446.7762269533;;;2.8597286665812134
77385;BMP280;66444;49.680;18.538;2023-01-31T07:53:51;97443.08465762387;;;2.8699205006007107
77385;BMP280;66444;49.680;18.538;2023-01-31T07:58:54;97444.64550735985;;;2.880112311337143
77385;BMP280;66444;49.680;18.538;2023-01-31T08:03:57;97446.20636618706;;;2.8903040987905113
77385;BMP280;66444;49.680;18.538;2023-01-31T08:09:01;97444.64550735985;;;2.880112311337143
77385;BMP280;66444;49.680;18.538;2023-01-31T08:14:05;97462.03726717446;;;2.839344928693026
77385;BMP280;66444;49.680;18.538;2023-01-31T08:19:08;97474.03119165624;;;2.9004958629608155
77385;BMP280;66444;49.680;18.538;2023-01-31T08:24:11;97465.5825211193;;;2.931071015773341
77385;BMP280;66444;49.680;18.538;2023-01-31T08:29:14;97473.67321025788;;;2.966741762543097
77385;BMP280;66444;49.680;18.538;2023-01-31T08:34:18;97477.00608713049;;;3.0227952169254424
77385;BMP280;66444;49.680;18.538;2023-01-31T08:39:21;97486.86838014642;;;3.1043262569233776
77385;BMP280;66444;49.680;18.538;2023-01-31T08:44:25;97491.0569183761;;;3.1145175321493297
77385;BMP280;66444;49.680;18.538;2023-01-31T08:49:28;97515.55727542713;;;3.0686566102784125
77385;BMP280;66444;49.680;18.538;2023-01-31T08:54:31;97522.16117999668;;;3.043178116623312
77385;BMP280;66444;49.680;18.538;2023-01-31T08:59:35;97539.2721404474;;;3.0176994774490593
77385;BMP280;66444;49.680;18.538;2023-01-31T09:04:38;97513.78344061687;;;3.0227952169254424
77385;BMP280;66444;49.680;18.538;2023-01-31T09:09:42;97531.67497948077;;;3.002412224095315
77385;BMP280;66444;49.680;18.538;2023-01-31T09:14:45;97535.79365505389;;;3.0635609231889247
77385;BMP280;66444;49.680;18.538;2023-01-31T09:19:48;97550.49185146486;;;3.0737522915471347
77385;BMP280;66444;49.680;18.538;2023-01-31T09:24:57;97538.3495144604;;;3.1145175321493297
77385;BMP280;66444;49.680;18.538;2023-01-31T09:30:00;97541.32733892393;;;3.2368110187817365
77385;BMP280;66444;49.680;18.538;2023-01-31T09:35:04;97537.06262207692;;;3.2775747692678125
77385;BMP280;66444;49.680;18.538;2023-01-31T09:40:10;97540.18614324134;;;3.297956504812464
77385;BMP280;66444;49.680;18.538;2023-01-31T09:45:24;97537.48149726453;;;3.348910436220467
77385;BMP280;66444;49.680;18.538;2023-01-31T09:50:33;97545.08089225029;;;3.364196502137929
77385;BMP280;66444;49.680;18.538;2023-01-31T09:55:43;97545.2897772524;;;3.3998637855518608
77385;BMP280;66444;49.680;18.538;2023-01-31T10:00:56;97527.95667652931;;;3.389673162251711
77385;BMP280;66444;49.680;18.538;2023-01-31T10:06:10;97532.22470810908;;;3.348910436220467
77385;BMP280;66444;49.680;18.538;2023-01-31T10:11:27;97530.87158703984;;;3.37438718364574
77385;BMP280;66444;49.680;18.538;2023-01-31T10:16:37;97535.2696109268;;;3.420244962302968
77385;BMP280;66444;49.680;18.538;2023-01-31T10:21:46;97533.62892252984;;;3.4610070364084096
77385;BMP280;66444;49.680;18.538;2023-01-31T10:26:56;97541.43588491908;;;3.5119591051712633
77385;BMP280;66444;49.680;18.538;2023-01-31T10:32:09;97539.50641259378;;;3.568005708511919
77385;BMP280;66444;49.680;18.538;2023-01-31T10:37:20;97547.43480810612;;;3.705571657931432
77385;BMP280;66444;49.680;18.538;2023-01-31T10:42:33;97534.11281716017;;;3.8074696254450826
77385;BMP280;66444;49.680;18.538;2023-01-31T10:47:39;97533.93605142976;;;3.9093652646522967
77385;BMP280;66444;49.680;18.538;2023-01-31T10:52:54;97534.33588417027;;;3.980690826755017
77385;BMP280;66444;49.680;18.538;2023-01-31T10:58:13;97520.70235533382;;;4.097866059187799
77385;BMP280;66444;49.680;18.538;2023-01-31T11:03:20;97528.31003867206;;;4.250698691373691
77385;BMP280;66444;49.680;18.538;2023-01-31T11:08:28;97516.4154927312;;;4.276170287420973
77385;BMP280;66444;49.680;18.538;2023-01-31T11:13:35;97509.59120711773;;;4.265981666464358
77385;BMP280;66444;49.680;18.538;2023-01-31T11:18:42;97502.18065788505;;;4.286358885094524
77385;BMP280;66444;49.680;18.538;2023-01-31T11:23:49;97493.10837339563;;;4.347489982191473
77385;BMP280;66444;49.680;18.538;2023-01-31T11:28:54;97499.06192885924;;;4.265981666464358
77385;BMP280;66444;49.680;18.538;2023-01-31T11:33:58;97492.23804354103;;;4.25579302222468
77385;BMP280;66444;49.680;18.538;2023-01-31T11:39:16;97493.41065615912;;;4.194660667842254
77385;BMP280;66444;49.680;18.538;2023-01-31T11:44:27;97488.5382658854;;;4.1284330047201365
77385;BMP280;66444;49.680;18.538;2023-01-31T11:49:32;97452.47392114556;;;4.133527475269512
77385;BMP280;66444;49.680;18.538;2023-01-31T11:54:40;97466.88595851813;;;4.2965474594850095
77385;BMP280;66444;49.680;18.538;2023-01-31T11:59:46;97450.90138129605;;;4.2608873472549025
77385;BMP280;66444;49.680;18.538;2023-01-31T12:04:52;97434.11587782863;;;4.357678416883573
77385;BMP280;66444;49.680;18.538;2023-01-31T12:09:56;97427.5062165298;;;4.245604354701936
77385;BMP280;66444;49.680;18.538;2023-01-31T12:15:00;97445.75279047506;;;4.072393444506451
77385;BMP280;66444;49.680;18.538;2023-01-31T12:20:13;97449.75138284458;;;3.9093652646522967
77385;BMP280;66444;49.680;18.538;2023-01-31T12:25:30;97450.91859483653;;;3.848228160524741
77385;BMP280;66444;49.680;18.538;2023-01-31T12:30:51;97443.02719485266;;;3.848228160524741
77385;BMP280;66444;49.680;18.538;2023-01-31T12:36:11;97432.21326963027;;;3.8635125151369722
77385;BMP280;66444;49.680;18.538;2023-01-31T12:41:31;97422.75858673184;;;3.990880099637434
77385;BMP280;66444;49.680;18.538;2023-01-31T12:46:40;97425.18676040474;;;4.092771547893062
77385;BMP280;66444;49.680;18.538;2023-01-31T12:52:00;97427.81826258576;;;4.092771547893062
77385;BMP280;66444;49.680;18.538;2023-01-31T12:57:21;97431.03711353667;;;4.062204357888549
77385;BMP280;66444;49.680;18.538;2023-01-31T13:02:38;97438.25205396033;;;4.006163965305314
77385;BMP280;66444;49.680;18.538;2023-01-31T13:07:49;97436.10714895588;;;4.026542371371761
77385;BMP280;66444;49.680;18.538;2023-01-31T13:12:56;97428.50680867251;;;4.011258575553074
77385;BMP280;66444;49.680;18.538;2023-01-31T13:18:02;97430.65177616646;;;3.990880099637434
77385;BMP280;66444;49.680;18.538;2023-01-31T13:23:10;97429.48338108131;;;3.7769004796631633
77385;BMP280;66444;49.680;18.538;2023-01-31T13:28:20;97429.76437033285;;;3.624051607539877
77385;BMP280;66444;49.680;18.538;2023-01-31T13:33:32;97428.29642532504;;;3.562910591857508
77385;BMP280;66444;49.680;18.538;2023-01-31T13:38:41;97431.21568215678;;;3.5476252069696783
77385;BMP280;66444;49.680;18.538;2023-01-31T13:43:46;97433.55487026829;;;3.562910591857508
77385;BMP280;66444;49.680;18.538;2023-01-31T13:48:50;97428.0967961009;;;3.5272446122951804
77385;BMP280;66444;49.680;18.538;2023-01-31T13:54:00;97424.10788142461;;;3.5527203410863875
77385;BMP280;66444;49.680;18.538;2023-01-31T13:59:10;97413.49886154574;;;3.6036713621113448
77385;BMP280;66444;49.680;18.538;2023-01-31T14:04:24;97400.84018076473;;;3.624051607539877
77385;BMP280;66444;49.680;18.538;2023-01-31T14:09:31;97402.7915538623;;;3.705571657931432
77385;BMP280;66444;49.680;18.538;2023-01-31T14:14:37;97402.2077566279;;;3.7361412926577033
77385;BMP280;66444;49.680;18.538;2023-01-31T14:19:59;97403.57051715038;;;3.848228160524741
77385;BMP280;66444;49.680;18.538;2023-01-31T14:25:10;97410.48806065097;;;3.8074696254450826
77385;BMP280;66444;49.680;18.538;2023-01-31T14:30:20;97399.96704819822;;;3.8074696254450826
77385;BMP280;66444;49.680;18.538;2023-01-31T14:35:38;97395.29171891206;;;3.7769004796631633
77385;BMP280;66444;49.680;18.538;2023-01-31T14:40:56;97386.62199830714;;;3.634241695329547
77385;BMP280;66444;49.680;18.538;2023-01-31T14:47:18;97388.55524097214;;;3.4406260459218174
77385;BMP280;66444;49.680;18.538;2023-01-31T14:52:37;97373.54638464926;;;3.3081473376601935
77385;BMP280;66444;49.680;18.538;2023-01-31T14:58:00;97369.4488851452;;;3.247001991327852
77385;BMP280;66444;49.680;18.538;2023-01-31T15:03:07;97362.63445938702;;;3.2368110187817365
77385;BMP280;66444;49.680;18.538;2023-01-31T15:08:39;97362.05516657884;;;3.26738386657089
77385;BMP280;66444;49.680;18.538;2023-01-31T15:13:46;97352.12345654194;;;3.2368110187817365
77385;BMP280;66444;49.680;18.538;2023-01-31T15:18:53;97358.24743648121;;;3.190951354196295
77385;BMP280;66444;49.680;18.538;2023-01-31T15:24:02;97343.2614307492;;;3.1960468957666306
77385;BMP280;66444;49.680;18.538;2023-01-31T15:29:11;97350.56482742817;;;3.226620022952557
77385;BMP280;66444;49.680;18.538;2023-01-31T15:34:22;97352.99233338574;;;3.190951354196295
77385;BMP280;66444;49.680;18.538;2023-01-31T15:39:33;97340.05404396419;;;3.226620022952557
77385;BMP280;66444;49.680;18.538;2023-01-31T15:44:43;97337.91538996667;;;3.247001991327852
77385;BMP280;66444;49.680;18.538;2023-01-31T15:49:48;97343.17094867548;;;3.247001991327852
77385;BMP280;66444;49.680;18.538;2023-01-31T15:54:53;97331.10156518847;;;3.2368110187817365
77385;BMP280;66444;49.680;18.538;2023-01-31T15:59:58;97332.65984078622;;;3.247001991327852
77385;BMP280;66444;49.680;18.538;2023-01-31T16:05:03;97336.26508106371;;;3.2877656486816704
77385;BMP280;66444;49.680;18.538;2023-01-31T16:10:10;97328.38123849554;;;3.2877656486816704
77385;BMP280;66444;49.680;18.538;2023-01-31T16:15:18;97331.2998029962;;;3.272479320829734
77385;BMP280;66444;49.680;18.538;2023-01-31T16:20:34;97328.38123849554;;;3.2877656486816704
77385;BMP280;66444;49.680;18.538;2023-01-31T16:25:41;97330.71845098105;;;3.303051924146712
77385;BMP280;66444;49.680;18.538;2023-01-31T16:31:05;97334.41624505242;;;3.2928610796574502
77385;BMP280;66444;49.680;18.538;2023-01-31T16:36:11;97336.75360025036;;;3.3081473376601935
77385;BMP280;66444;49.680;18.538;2023-01-31T16:41:16;97342.00968371649;;;3.3081473376601935
77385;BMP280;66444;49.680;18.538;2023-01-31T16:46:40;97339.4737652181;;;3.2571929405909033
77385;BMP280;66444;49.680;18.538;2023-01-31T16:51:46;97337.51687392099;;;3.175664694560692
77385;BMP280;66444;49.680;18.538;2023-01-31T16:57:06;97340.03259278597;;;3.0890393004287033
77385;BMP280;66444;49.680;18.538;2023-01-31T17:02:23;97341.18797742248;;;3.027890950581059
77385;BMP280;66444;49.680;18.538;2023-01-31T17:07:29;97347.39100410578;;;2.931071015773341
77385;BMP280;66444;49.680;18.538;2023-01-31T17:12:37;97341.31945742936;;;2.788385176518932
77385;BMP280;66444;49.680;18.538;2023-01-31T17:17:41;97334.46248055328;;;2.640598603570834
77385;BMP280;66444;49.680;18.538;2023-01-31T17:22:45;97329.57649707307;;;2.574347861111164
77385;BMP280;66444;49.680;18.538;2023-01-31T17:27:50;97323.41564451775;;;2.482614439865574
77385;BMP280;66444;49.680;18.538;2023-01-31T17:32:54;97327.18009809495;;;2.4214577779639512
77385;BMP280;66444;49.680;18.538;2023-01-31T17:37:58;97309.45567166377;;;2.339914258243516
77385;BMP280;66444;49.680;18.538;2023-01-31T17:43:03;97316.05198363472;;;2.3144316027406604
77385;BMP280;66444;49.680;18.538;2023-01-31T17:48:07;97299.52990741275;;;2.309335054177791
77385;BMP280;66444;49.680;18.538;2023-01-31T17:53:11;97286.90589407308;;;2.329721213504672
77385;BMP280;66444;49.680;18.538;2023-01-31T17:58:15;97277.39861279029;;;2.370493252761662
77385;BMP280;66444;49.680;18.538;2023-01-31T18:03:20;97262.0683170084;;;2.4418434250634165
77385;BMP280;66444;49.680;18.538;2023-01-31T18:08:26;97253.82687071899;;;2.5080961349420248
77385;BMP280;66444;49.680;18.538;2023-01-31T18:13:31;97231.96711315999;;;2.5539628193713724
77385;BMP280;66444;49.680;18.538;2023-01-31T18:18:34;97234.50615623032;;;2.6049252490978687
77385;BMP280;66444;49.680;18.538;2023-01-31T18:23:38;97225.27533156732;;;2.6304062456823885
77385;BMP280;66444;49.680;18.538;2023-01-31T18:28:42;97235.88905123656;;;2.7170405455864968
77385;BMP280;66444;49.680;18.538;2023-01-31T18:33:48;97227.72350729055;;;2.7323287768289446
77385;BMP280;66444;49.680;18.538;2023-01-31T18:38:52;97224.2291253611;;;2.77819315623492
77385;BMP280;66444;49.680;18.538;2023-01-31T18:43:55;97218.39771125524;;;2.8087691472377627
77385;BMP280;66444;49.680;18.538;2023-01-31T18:48:59;97217.42068672313;;;2.768001112667844
77385;BMP280;66444;49.680;18.538;2023-01-31T18:54:03;97209.6351520849;;;2.7170405455864968
77385;BMP280;66444;49.680;18.538;2023-01-31T18:59:07;97220.91531705033;;;2.722136628488079
77385;BMP280;66444;49.680;18.538;2023-01-31T19:04:10;97213.41837146475;;;2.655887096747756
77385;BMP280;66444;49.680;18.538;2023-01-31T19:09:14;97214.66150240556;;;2.54377026357688
77385;BMP280;66444;49.680;18.538;2023-01-31T19:14:19;97211.14154970188;;;2.4520362136885523
77385;BMP280;66444;49.680;18.538;2023-01-31T19:19:22;97202.77813346921;;;2.431650613155216
77385;BMP280;66444;49.680;18.538;2023-01-31T19:24:26;97197.52985236325;;;2.431650613155216
77385;BMP280;66444;49.680;18.538;2023-01-31T19:29:30;97186.45640932702;;;2.462228979030624
77385;BMP280;66444;49.680;18.538;2023-01-31T19:34:34;97165.86177836574;;;2.533577684499323
77385;BMP280;66444;49.680;18.538;2023-01-31T19:39:38;97137.87299115804;;;2.625310058007017
77385;BMP280;66444;49.680;18.538;2023-01-31T19:44:41;97145.36200920552;;;2.691560043767095
77385;BMP280;66444;49.680;18.538;2023-01-31T19:49:45;97133.98634991163;;;2.7374248422682284
77385;BMP280;66444;49.680;18.538;2023-01-31T19:54:49;97132.81831604874;;;2.7985771735198797
77385;BMP280;66444;49.680;18.538;2023-01-31T19:59:53;97113.75144641902;;;2.880112311337143
77385;BMP280;66444;49.680;18.538;2023-01-31T20:04:57;97124.05046590112;;;2.98202913813293
77385;BMP280;66444;49.680;18.538;2023-01-31T20:10:01;97139.4125791346;;;3.0482738269958647
77385;BMP280;66444;49.680;18.538;2023-01-31T20:15:05;97138.42530108044;;;3.1450912181288
77385;BMP280;66444;49.680;18.538;2023-01-31T20:20:11;97156.81545927392;;;3.1450912181288
77385;BMP280;66444;49.680;18.538;2023-01-31T20:25:15;97136.28104567068;;;3.1654735590331256
77385;BMP280;66444;49.680;18.538;2023-01-31T20:30:19;97128.10438516816;;;3.1807602535933257
77385;BMP280;66444;49.680;18.538;2023-01-31T20:35:23;97118.15334628617;;;3.2877656486816704
77385;BMP280;66444;49.680;18.538;2023-01-31T20:40:27;97127.21887862826;;;3.226620022952557
77385;BMP280;66444;49.680;18.538;2023-01-31T20:45:31;97133.54647948926;;;3.2164290038403123
77385;BMP280;66444;49.680;18.538;2023-01-31T20:50:35;97140.94619436993;;;3.1960468957666306
77385;BMP280;66444;49.680;18.538;2023-01-31T20:55:39;97132.58151441521;;;3.175664694560692
77385;BMP280;66444;49.680;18.538;2023-01-31T21:00:44;97118.37254322955;;;3.1858558068051934
77385;BMP280;66444;49.680;18.538;2023-01-31T21:05:50;97126.14611376762;;;3.2368110187817365
77385;BMP280;66444;49.680;18.538;2023-01-31T21:10:57;97130.81036410308;;;3.26738386657089
77385;BMP280;66444;49.680;18.538;2023-01-31T21:16:04;97106.68023986992;;;3.247001991327852
77385;BMP280;66444;49.680;18.538;2023-01-31T21:21:13;97109.60367882879;;;3.2317155237775297
77385;BMP280;66444;49.680;18.538;2023-01-31T21:26:21;97134.51087318991;;;3.2571929405909033
77385;BMP280;66444;49.680;18.538;2023-01-31T21:31:27;97121.85426191142;;;3.2775747692678125
77385;BMP280;66444;49.680;18.538;2023-01-31T21:36:34;97113.48985757772;;;3.2571929405909033
77385;BMP280;66444;49.680;18.538;2023-01-31T21:41:40;97117.19052831894;;;3.247001991327852
77385;BMP280;66444;49.680;18.538;2023-01-31T21:46:45;97106.86518880504;;;3.2826702118851245
77385;BMP280;66444;49.680;18.538;2023-01-31T21:51:51;97122.03964868984;;;3.313242745352909
77385;BMP280;66444;49.680;18.538;2023-01-31T21:56:57;97124.37145709434;;;3.328528933506459
77385;BMP280;66444;49.680;18.538;2023-01-31T22:02:04;97103.34805650816;;;3.328528933506459
77385;BMP280;66444;49.680;18.538;2023-01-31T22:07:10;97122.22452071843;;;3.348910436220467
77385;BMP280;66444;49.680;18.538;2023-01-31T22:12:16;97142.17551704639;;;3.3591011526528747
77385;BMP280;66444;49.680;18.538;2023-01-31T22:17:22;97097.49845960218;;;3.3591011526528747